Time;durP1;ratioP1;P1;durP2;ratioP2;P2;SDS_P1;SDS_P2;PMS_P1;PMS_P2;Temp;Humidity;BMP_temperature;BMP_pressure;BME280_temperature;BME280_humidity;BME280_pressure;Samples;Min_cycle;Max_cycle;Signal;HPM_P1;HPM_P2
2021/01/26 00:02:01;;;;;;;9.97;8.27;;;0.80;99.90;;;;;;6124540;23;20200;-94
2021/01/26 00:04:26;;;;;;;9.30;6.97;;;0.70;99.90;;;;;;6150615;23;20164;-94
2021/01/26 00:06:52;;;;;;;10.27;7.93;;;0.60;99.90;;;;;;6149149;23;20152;-94
2021/01/26 00:09:17;;;;;;;11.80;8.90;;;0.60;99.90;;;;;;6149235;23;20256;-93
2021/01/26 00:11:43;;;;;;;9.80;8.00;;;0.50;99.90;;;;;;6148659;23;20159;-93
2021/01/26 00:14:09;;;;;;;11.77;8.73;;;0.60;99.90;;;;;;6149407;23;20175;-90
2021/01/26 00:16:34;;;;;;;13.03;9.37;;;0.50;99.90;;;;;;6145468;23;20573;-93
2021/01/26 00:19:00;;;;;;;11.57;9.70;;;0.50;99.90;;;;;;6144827;23;20234;-92
2021/01/26 00:21:26;;;;;;;12.57;9.50;;;0.30;99.90;;;;;;6142243;23;20171;-91
2021/01/26 00:23:52;;;;;;;11.53;9.30;;;0.30;99.90;;;;;;6145526;23;20161;-92
2021/01/26 00:26:18;;;;;;;11.80;8.50;;;0.20;99.90;;;;;;6144993;23;20163;-92
2021/01/26 00:28:44;;;;;;;11.30;9.10;;;0.10;99.90;;;;;;6143856;23;20404;-92
2021/01/26 00:31:10;;;;;;;16.70;11.80;;;0.10;99.90;;;;;;6144841;23;20400;-93
2021/01/26 00:33:36;;;;;;;15.20;11.80;;;0.00;99.90;;;;;;6146291;23;20415;-94
2021/01/26 00:36:02;;;;;;;15.67;11.40;;;0.00;99.90;;;;;;6148168;23;20192;-94
2021/01/26 00:38:28;;;;;;;13.80;10.70;;;0.00;99.90;;;;;;6148307;23;20518;-90
2021/01/26 00:40:55;;;;;;;15.13;11.60;;;0.00;99.90;;;;;;6166873;23;20489;-93
2021/01/26 00:43:21;;;;;;;15.40;10.63;;;0.00;99.90;;;;;;6164186;23;20267;-93
2021/01/26 00:45:47;;;;;;;17.50;13.03;;;0.00;99.90;;;;;;6149000;23;20765;-93
2021/01/26 00:48:15;;;;;;;14.67;11.37;;;0.10;99.90;;;;;;6147674;23;20296;-91
2021/01/26 00:50:40;;;;;;;14.93;10.23;;;0.00;99.90;;;;;;6143986;23;20176;-91
2021/01/26 00:53:06;;;;;;;14.50;10.33;;;0.00;99.90;;;;;;6145182;23;20996;-91
2021/01/26 00:55:32;;;;;;;14.13;10.50;;;-0.10;99.90;;;;;;6144582;23;20526;-91
2021/01/26 00:57:58;;;;;;;14.40;11.10;;;-0.10;99.90;;;;;;6147410;23;20399;-91
2021/01/26 01:00:31;;;;;;;14.67;10.67;;;-0.20;99.90;;;;;;6145998;23;20176;-91
2021/01/26 01:02:57;;;;;;;14.30;11.17;;;-0.20;99.90;;;;;;6146808;23;20254;-92
2021/01/26 01:05:23;;;;;;;15.10;11.70;;;-0.20;99.90;;;;;;6146167;23;20400;-91
2021/01/26 01:07:49;;;;;;;13.73;10.33;;;-0.20;99.90;;;;;;6146556;23;20474;-92
2021/01/26 01:10:18;;;;;;;13.20;10.60;;;-0.30;99.90;;;;;;6146153;23;20755;-91
2021/01/26 01:12:44;;;;;;;13.97;9.93;;;-0.30;99.90;;;;;;6144836;23;20862;-91
2021/01/26 01:15:11;;;;;;;13.73;11.00;;;-0.40;99.90;;;;;;6142504;23;20444;-91
2021/01/26 01:17:36;;;;;;;16.80;10.10;;;-0.40;99.90;;;;;;6144831;23;20175;-91
2021/01/26 01:20:05;;;;;;;15.00;11.50;;;-0.40;99.90;;;;;;6145680;23;20391;-92
2021/01/26 01:22:31;;;;;;;14.70;11.10;;;-0.40;99.90;;;;;;6147778;23;20199;-92
2021/01/26 01:24:56;;;;;;;13.10;9.70;;;-0.40;99.90;;;;;;6145402;23;20387;-90
2021/01/26 01:27:22;;;;;;;15.77;11.33;;;-0.40;99.90;;;;;;6171546;23;20174;-91
2021/01/26 01:29:48;;;;;;;15.10;10.40;;;-0.40;99.90;;;;;;6149084;23;20156;-91
2021/01/26 01:32:14;;;;;;;17.37;11.80;;;-0.50;99.90;;;;;;6148524;23;20505;-93
2021/01/26 01:34:39;;;;;;;16.47;10.90;;;-0.50;99.90;;;;;;6149520;23;20181;-90
2021/01/26 01:37:05;;;;;;;15.00;10.63;;;-0.50;99.90;;;;;;6149263;23;20399;-92
2021/01/26 01:39:31;;;;;;;13.00;9.97;;;-0.40;99.90;;;;;;6149252;23;20238;-91
2021/01/26 01:41:57;;;;;;;14.80;10.13;;;-0.40;99.90;;;;;;6148593;23;20168;-91
2021/01/26 01:44:23;;;;;;;14.00;10.30;;;-0.40;99.90;;;;;;6149488;23;20168;-91
2021/01/26 01:46:59;;;;;;;15.67;11.03;;;-0.30;99.90;;;;;;6149253;23;20160;-90
2021/01/26 01:49:30;;;;;;;14.63;11.07;;;-0.40;99.90;;;;;;6149280;23;20431;-91
2021/01/26 01:51:57;;;;;;;15.07;10.00;;;-0.40;99.90;;;;;;6148990;23;20865;-91
2021/01/26 01:54:47;;;;;;;16.52;11.48;;;-0.50;99.90;;;;;;6148389;23;20191;-91
2021/01/26 01:57:22;;;;;;;17.17;11.88;;;-0.50;99.90;;;;;;6147354;23;20165;-91
2021/01/26 01:59:54;;;;;;;17.52;10.98;;;-0.50;99.90;;;;;;6146433;23;20174;-91
2021/01/26 02:02:20;;;;;;;17.80;12.43;;;-0.60;99.90;;;;;;6147824;23;20172;-89
2021/01/26 02:04:46;;;;;;;17.05;11.35;;;-0.60;99.90;;;;;;6147371;23;20172;-91
2021/01/26 02:07:12;;;;;;;18.80;11.95;;;-0.70;99.90;;;;;;6148207;23;20164;-91
2021/01/26 02:09:40;;;;;;;16.55;11.70;;;-0.60;99.90;;;;;;6148780;23;20157;-91
2021/01/26 02:12:08;;;;;;;16.67;11.65;;;-0.70;99.90;;;;;;6146833;23;20195;-90
2021/01/26 02:14:36;;;;;;;17.48;11.85;;;-0.60;99.90;;;;;;6149095;23;20210;-93
2021/01/26 02:17:14;;;;;;;16.55;10.50;;;-0.60;99.90;;;;;;6152637;23;20172;-93
2021/01/26 02:20:17;;;;;;;15.02;11.40;;;-0.70;99.90;;;;;;6149789;23;20211;-93
2021/01/26 02:23:07;;;;;;;14.27;10.70;;;-0.60;99.90;;;;;;6147481;23;20218;-92
2021/01/26 02:26:10;;;;;;;17.30;11.43;;;-0.50;99.90;;;;;;6147258;23;20247;-92
2021/01/26 02:28:48;;;;;;;12.88;9.65;;;-0.60;99.90;;;;;;6149316;23;20168;-91
2021/01/26 02:31:35;;;;;;;12.20;9.60;;;-0.50;99.90;;;;;;6150244;23;20175;-91
2021/01/26 02:34:37;;;;;;;13.65;8.40;;;-0.50;99.90;;;;;;6147197;23;20364;-92
2021/01/26 02:37:24;;;;;;;11.30;8.20;;;-0.50;99.90;;;;;;6145424;23;20183;-89
2021/01/26 02:39:56;;;;;;;12.70;8.88;;;-0.50;99.90;;;;;;6146870;23;20203;-93
2021/01/26 02:42:41;;;;;;;15.98;9.95;;;-0.60;99.90;;;;;;6148853;23;20164;-94
2021/01/26 02:45:35;;;;;;;12.48;8.57;;;-0.60;99.90;;;;;;6151905;23;20211;-94
2021/01/26 02:48:26;;;;;;;11.20;8.13;;;-0.70;99.90;;;;;;6149741;23;20197;-95
2021/01/26 02:51:09;;;;;;;13.38;8.95;;;-0.70;99.90;;;;;;6148756;23;20169;-94
2021/01/26 02:53:53;;;;;;;13.32;8.70;;;-0.70;99.90;;;;;;6150124;23;20176;-93
2021/01/26 02:56:25;;;;;;;13.25;8.68;;;-0.70;99.90;;;;;;6147400;23;20219;-93
2021/01/26 02:59:00;;;;;;;13.50;8.85;;;-0.60;99.90;;;;;;6148373;23;20251;-94
2021/01/26 03:01:31;;;;;;;14.13;8.93;;;-0.70;99.90;;;;;;6150799;23;20167;-93
2021/01/26 03:04:04;;;;;;;13.10;9.23;;;-0.70;99.90;;;;;;6146226;23;20606;-93
2021/01/26 03:06:32;;;;;;;10.98;8.20;;;-0.60;99.90;;;;;;6149446;23;20164;-93
2021/01/26 03:09:07;;;;;;;14.15;10.02;;;-0.60;99.90;;;;;;6148653;23;20172;-93
2021/01/26 03:12:01;;;;;;;11.05;7.55;;;-0.60;99.90;;;;;;6147541;23;20171;-91
2021/01/26 03:14:44;;;;;;;9.00;6.50;;;-0.70;99.90;;;;;;6173369;23;20242;-92
2021/01/26 03:17:32;;;;;;;11.18;7.85;;;-0.70;99.90;;;;;;6150370;23;20168;-91
2021/01/26 03:20:06;;;;;;;9.48;6.38;;;-0.70;99.90;;;;;;6149561;23;20204;-91
2021/01/26 03:22:33;;;;;;;12.43;8.43;;;-0.60;99.90;;;;;;6147498;23;20550;-90
2021/01/26 03:25:02;;;;;;;9.93;7.30;;;-0.60;99.90;;;;;;6147019;23;20591;-92
2021/01/26 03:27:32;;;;;;;11.25;7.13;;;-0.60;99.90;;;;;;6146689;23;20160;-92
2021/01/26 03:30:00;;;;;;;14.02;8.13;;;-0.50;99.90;;;;;;6146731;23;20490;-91
2021/01/26 03:32:32;;;;;;;10.65;7.25;;;-0.50;99.90;;;;;;6147463;23;20168;-92
2021/01/26 03:34:58;;;;;;;15.60;9.85;;;-0.60;99.90;;;;;;6147944;23;20195;-92
2021/01/26 03:37:24;;;;;;;14.73;8.90;;;-0.60;99.90;;;;;;6146505;23;20164;-91
2021/01/26 03:39:51;;;;;;;16.20;9.70;;;-0.60;99.90;;;;;;6145522;23;20183;-91
2021/01/26 03:42:17;;;;;;;14.82;9.45;;;-0.60;99.90;;;;;;6145237;23;20191;-92
2021/01/26 03:44:47;;;;;;;12.40;8.13;;;-0.60;99.90;;;;;;6146790;23;20160;-92
2021/01/26 03:47:38;;;;;;;12.05;8.13;;;-0.60;99.90;;;;;;6147846;23;20392;-92
2021/01/26 03:50:14;;;;;;;14.32;9.70;;;-0.60;99.90;;;;;;6148095;23;20168;-92
2021/01/26 03:53:04;;;;;;;15.52;10.05;;;-0.60;99.90;;;;;;6150036;23;20203;-92
2021/01/26 03:55:37;;;;;;;16.98;9.32;;;-0.70;99.90;;;;;;6148989;23;20200;-94
2021/01/26 03:58:23;;;;;;;17.52;9.50;;;-0.70;99.90;;;;;;6146997;23;20200;-92
2021/01/26 04:01:08;;;;;;;15.55;9.30;;;-0.70;99.90;;;;;;6146878;23;20263;-93
2021/01/26 04:03:49;;;;;;;16.20;10.20;;;-0.80;99.90;;;;;;6148097;23;20266;-92
2021/01/26 04:06:21;;;;;;;13.63;9.30;;;-0.80;99.90;;;;;;6147147;23;20178;-92
2021/01/26 04:08:51;;;;;;;9.27;6.85;;;-0.80;99.90;;;;;;6147466;23;20240;-93
2021/01/26 04:11:37;;;;;;;9.80;7.20;;;-0.80;99.90;;;;;;6147999;23;20168;-92
2021/01/26 04:14:09;;;;;;;12.90;8.32;;;-0.70;99.90;;;;;;6147558;23;20164;-92
2021/01/26 04:17:13;;;;;;;10.10;6.55;;;-0.70;99.90;;;;;;6148108;23;20486;-93
2021/01/26 04:19:45;;;;;;;9.98;7.32;;;-0.60;99.90;;;;;;6127777;23;20591;-93
2021/01/26 04:22:13;;;;;;;11.63;7.65;;;-0.60;99.90;;;;;;6147815;23;20168;-93
2021/01/26 04:24:39;;;;;;;8.32;6.90;;;-0.60;99.90;;;;;;6148043;23;20168;-92
2021/01/26 04:27:15;;;;;;;12.80;8.23;;;-0.60;99.90;;;;;;6148116;23;20164;-92
2021/01/26 04:29:41;;;;;;;14.38;9.45;;;-0.60;99.90;;;;;;6145874;23;20303;-93
2021/01/26 04:32:07;;;;;;;11.70;7.60;;;-0.60;99.90;;;;;;6147354;23;20192;-93
2021/01/26 04:34:33;;;;;;;11.75;7.90;;;-0.60;99.90;;;;;;6147754;23;20180;-92
2021/01/26 04:37:00;;;;;;;9.37;7.10;;;-0.50;99.90;;;;;;6148567;23;20178;-92
2021/01/26 04:39:26;;;;;;;13.75;8.02;;;-0.40;99.90;;;;;;6147316;23;20727;-92
2021/01/26 04:41:58;;;;;;;11.20;7.90;;;-0.40;99.90;;;;;;6145767;23;20676;-92
2021/01/26 04:45:02;;;;;;;11.13;6.10;;;-0.40;99.90;;;;;;6147304;23;20427;-91
2021/01/26 04:47:33;;;;;;;10.80;7.40;;;-0.30;99.90;;;;;;6146514;23;20156;-90
2021/01/26 04:50:18;;;;;;;13.75;8.70;;;-0.30;99.90;;;;;;6144584;23;20207;-91
2021/01/26 04:53:09;;;;;;;12.43;7.22;;;-0.30;99.90;;;;;;6147159;23;20622;-89
2021/01/26 04:55:53;;;;;;;10.73;7.93;;;-0.20;99.90;;;;;;6147127;23;20266;-90
2021/01/26 04:58:44;;;;;;;10.38;7.43;;;-0.20;99.90;;;;;;6147294;23;20168;-90
2021/01/26 05:01:37;;;;;;;11.45;7.30;;;-0.10;99.90;;;;;;6147298;23;20160;-91
2021/01/26 05:04:08;;;;;;;9.18;7.10;;;-0.10;99.90;;;;;;6145492;23;20225;-91
2021/01/26 05:06:39;;;;;;;14.38;6.60;;;0.00;99.90;;;;;;6144611;23;20543;-91
2021/01/26 05:09:11;;;;;;;9.48;7.32;;;0.00;99.90;;;;;;6144523;23;20169;-91
2021/01/26 05:11:40;;;;;;;10.50;6.40;;;0.00;99.90;;;;;;6145183;23;20164;-90
2021/01/26 05:14:23;;;;;;;8.35;5.45;;;0.10;99.90;;;;;;6145929;23;20164;-92
2021/01/26 05:16:58;;;;;;;8.17;6.27;;;0.10;99.90;;;;;;6147155;23;20188;-92
2021/01/26 05:19:53;;;;;;;8.40;5.80;;;0.10;99.90;;;;;;6147311;23;20391;-93
2021/01/26 05:22:37;;;;;;;11.63;6.90;;;0.20;99.90;;;;;;6136370;23;20283;-90
2021/01/26 05:25:07;;;;;;;11.98;7.07;;;0.20;99.90;;;;;;6145895;23;20485;-92
2021/01/26 05:27:33;;;;;;;12.10;7.77;;;0.20;99.90;;;;;;6147786;23;20160;-92
2021/01/26 05:30:00;;;;;;;10.63;6.75;;;0.20;99.90;;;;;;6145294;23;20400;-91
2021/01/26 05:32:27;;;;;;;7.80;5.50;;;0.20;99.90;;;;;;6147680;23;20219;-93
2021/01/26 05:34:54;;;;;;;9.80;6.95;;;0.20;99.90;;;;;;6145297;23;20437;-92
2021/01/26 05:37:22;;;;;;;12.00;7.23;;;0.20;99.90;;;;;;6150039;23;20165;-92
2021/01/26 05:40:04;;;;;;;6.22;4.90;;;0.20;99.90;;;;;;6148751;23;20395;-94
2021/01/26 05:42:33;;;;;;;9.87;6.70;;;0.20;99.90;;;;;;6147346;23;20284;-93
2021/01/26 05:45:03;;;;;;;11.27;7.17;;;0.30;99.90;;;;;;6149315;23;20383;-94
2021/01/26 05:47:32;;;;;;;9.40;5.87;;;0.20;99.90;;;;;;6149696;23;20406;-93
2021/01/26 05:49:59;;;;;;;10.00;7.20;;;0.20;99.90;;;;;;6151577;23;20384;-94
2021/01/26 05:52:38;;;;;;;9.13;6.20;;;0.20;99.90;;;;;;6149211;23;20480;-92
2021/01/26 05:55:17;;;;;;;8.97;6.67;;;0.30;99.90;;;;;;6148296;23;20447;-91
2021/01/26 05:57:44;;;;;;;9.50;6.77;;;0.30;99.90;;;;;;6149316;23;20394;-93
2021/01/26 06:00:22;;;;;;;7.03;4.60;;;0.30;99.90;;;;;;6148701;23;20404;-92
2021/01/26 06:03:24;;;;;;;7.47;5.43;;;0.30;99.90;;;;;;6147196;23;20429;-91
2021/01/26 06:06:03;;;;;;;9.43;6.23;;;0.30;99.90;;;;;;6122757;23;20395;-90
2021/01/26 06:08:30;;;;;;;7.30;4.73;;;0.40;99.90;;;;;;6148894;23;20486;-93
2021/01/26 06:10:58;;;;;;;8.57;5.57;;;0.40;99.90;;;;;;6149040;23;20384;-92
2021/01/26 06:13:29;;;;;;;7.83;5.63;;;0.30;99.90;;;;;;6149785;23;20395;-92
2021/01/26 06:16:15;;;;;;;10.57;5.70;;;0.30;99.90;;;;;;6152048;23;20463;-92
2021/01/26 06:18:57;;;;;;;7.90;4.93;;;0.30;99.90;;;;;;6152149;23;20395;-91
2021/01/26 06:21:23;;;;;;;8.43;5.47;;;0.40;99.90;;;;;;6148981;23;20395;-92
2021/01/26 06:23:48;;;;;;;7.87;6.57;;;0.30;99.90;;;;;;6150142;23;20387;-91
2021/01/26 06:26:14;;;;;;;5.67;5.17;;;0.30;99.90;;;;;;6151371;23;20510;-92
2021/01/26 06:29:04;;;;;;;10.27;6.17;;;0.40;99.90;;;;;;6150941;23;20490;-92
2021/01/26 06:31:45;;;;;;;7.07;5.20;;;0.40;99.90;;;;;;6149518;23;20442;-93
2021/01/26 06:34:56;;;;;;;6.43;5.20;;;0.40;99.90;;;;;;6149740;23;20410;-89
2021/01/26 06:37:53;;;;;;;7.77;5.27;;;0.40;99.90;;;;;;6155024;23;20418;-95
2021/01/26 06:40:37;;;;;;;11.50;6.23;;;0.40;99.90;;;;;;6157661;23;20470;-94
2021/01/26 06:43:45;;;;;;;8.33;5.07;;;0.40;99.90;;;;;;6156971;23;20495;-95
2021/01/26 06:46:32;;;;;;;9.73;5.93;;;0.40;99.90;;;;;;6128106;23;20466;-93
2021/01/26 06:49:27;;;;;;;5.37;4.40;;;0.50;99.90;;;;;;6153505;23;20414;-94
2021/01/26 06:52:06;;;;;;;5.57;4.37;;;0.40;99.90;;;;;;6152355;23;20494;-94
2021/01/26 06:54:46;;;;;;;8.90;6.43;;;0.40;99.90;;;;;;6152769;23;20430;-95
2021/01/26 06:57:27;;;;;;;9.87;6.90;;;0.40;99.90;;;;;;6153570;23;20754;-94
2021/01/26 07:00:15;;;;;;;29.23;21.93;;;0.40;99.90;;;;;;6150370;23;20395;-95
2021/01/26 07:03:01;;;;;;;7.33;5.33;;;0.70;99.90;;;;;;6152791;23;20411;-95
2021/01/26 07:05:55;;;;;;;20.27;13.87;;;0.70;99.90;;;;;;6151579;23;20406;-95
2021/01/26 07:08:39;;;;;;;7.43;5.30;;;0.60;99.90;;;;;;6152329;23;20403;-94
2021/01/26 07:11:20;;;;;;;8.60;5.10;;;0.60;99.90;;;;;;6154553;23;20415;-94
2021/01/26 07:14:33;;;;;;;7.17;5.10;;;0.60;99.90;;;;;;6153895;23;20404;-93
2021/01/26 07:17:09;;;;;;;5.60;4.10;;;0.60;99.90;;;;;;6154590;23;20434;-95
2021/01/26 07:19:44;;;;;;;6.13;5.20;;;0.60;99.90;;;;;;6152906;23;20648;-94
2021/01/26 07:22:37;;;;;;;9.10;5.13;;;0.60;99.90;;;;;;6152786;23;20502;-93
2021/01/26 07:25:32;;;;;;;5.97;4.60;;;0.60;99.90;;;;;;6151049;23;20470;-94
2021/01/26 07:28:54;;;;;;;7.00;4.60;;;0.70;99.90;;;;;;6178797;23;20822;-94
2021/01/26 07:31:26;;;;;;;6.73;4.87;;;0.70;99.90;;;;;;6025623;23;20455;-94
2021/01/26 07:34:21;;;;;;;4.90;3.60;;;0.70;99.90;;;;;;6132716;23;20466;-94
2021/01/26 07:36:55;;;;;;;5.90;4.97;;;0.70;99.90;;;;;;6146374;23;20415;-94
2021/01/26 07:39:35;;;;;;;6.70;5.40;;;0.80;99.90;;;;;;6156269;23;20397;-94
2021/01/26 07:44:59;;;;;;;4.93;4.43;;;0.70;99.90;;;;;;6182545;23;20392;-94
2021/01/26 07:47:50;;;;;;;5.57;5.03;;;0.80;99.90;;;;;;6151587;23;20733;-94
2021/01/26 07:50:23;;;;;;;7.17;5.33;;;0.70;99.90;;;;;;6152146;23;20391;-94
2021/01/26 07:52:56;;;;;;;4.30;3.87;;;0.70;99.90;;;;;;6150263;23;20423;-95
2021/01/26 07:55:35;;;;;;;5.70;4.57;;;0.70;99.90;;;;;;6155206;23;20447;-94
2021/01/26 07:58:10;;;;;;;6.40;4.87;;;0.80;99.90;;;;;;6156369;23;20397;-87
2021/01/26 08:00:40;;;;;;;6.60;4.10;;;0.80;99.90;;;;;;6124835;23;20457;-92
2021/01/26 08:03:06;;;;;;;5.07;3.70;;;0.80;99.90;;;;;;6146687;23;20391;-92
2021/01/26 08:05:47;;;;;;;4.90;3.60;;;0.90;99.90;;;;;;6149073;23;20406;-94
2021/01/26 08:08:48;;;;;;;6.17;4.03;;;0.80;99.90;;;;;;6160631;23;20451;-95
2021/01/26 08:11:21;;;;;;;6.40;4.30;;;0.90;99.90;;;;;;6145912;23;20410;-89
2021/01/26 08:13:58;;;;;;;5.97;3.83;;;0.80;99.90;;;;;;6154139;23;21329;-91
2021/01/26 08:16:44;;;;;;;5.53;3.50;;;0.90;99.90;;;;;;6149141;23;20489;-89
2021/01/26 08:19:35;;;;;;;6.77;4.27;;;1.00;99.90;;;;;;6149146;23;20395;-89
2021/01/26 08:22:40;;;;;;;4.90;3.77;;;1.00;99.90;;;;;;6147986;23;20408;-94
2021/01/26 08:25:26;;;;;;;4.70;3.73;;;0.90;99.90;;;;;;6168304;23;20395;-90
2021/01/26 08:28:05;;;;;;;7.67;3.27;;;1.00;99.90;;;;;;6149084;23;20542;-87
2021/01/26 08:30:48;;;;;;;5.40;3.60;;;1.00;99.90;;;;;;6148874;23;20411;-85
2021/01/26 08:33:19;;;;;;;4.03;3.60;;;1.10;99.90;;;;;;6148673;23;20392;-89
2021/01/26 08:35:47;;;;;;;4.10;3.57;;;1.20;99.90;;;;;;6147765;23;20452;-88
2021/01/26 08:39:05;;;;;;;5.23;3.43;;;1.30;99.90;;;;;;6148392;23;20463;-87
2021/01/26 08:41:59;;;;;;;3.43;3.13;;;1.30;99.90;;;;;;6101329;23;21044;-88
2021/01/26 08:44:28;;;;;;;4.10;3.70;;;1.30;99.90;;;;;;6147505;23;20392;-88
2021/01/26 08:46:54;;;;;;;4.90;3.83;;;1.40;99.90;;;;;;6146714;23;20396;-87
2021/01/26 08:49:30;;;;;;;6.07;3.50;;;1.50;99.90;;;;;;6146622;23;20616;-87
2021/01/26 08:52:21;;;;;;;4.20;3.43;;;1.40;99.90;;;;;;6147926;23;20802;-87
2021/01/26 08:54:49;;;;;;;4.10;3.30;;;1.40;99.90;;;;;;6147599;23;20864;-88
2021/01/26 08:57:27;;;;;;;4.47;3.17;;;1.30;99.90;;;;;;6147054;23;20404;-88
2021/01/26 09:00:19;;;;;;;4.43;3.30;;;1.40;99.90;;;;;;6146906;23;20423;-87
2021/01/26 09:02:50;;;;;;;5.03;3.70;;;1.50;99.90;;;;;;6145959;23;20408;-87
2021/01/26 09:05:34;;;;;;;5.23;3.73;;;1.60;99.90;;;;;;6147285;23;20400;-87
2021/01/26 09:08:05;;;;;;;4.40;3.40;;;1.70;99.90;;;;;;6147134;23;20395;-88
2021/01/26 09:10:30;;;;;;;5.10;3.80;;;1.60;99.90;;;;;;6146598;23;20406;-86
2021/01/26 09:13:06;;;;;;;6.67;4.00;;;1.60;99.90;;;;;;6147387;23;20427;-88
2021/01/26 09:15:35;;;;;;;6.73;4.17;;;1.70;99.90;;;;;;6155863;23;20278;-94
2021/01/26 09:18:03;;;;;;;4.13;3.40;;;1.60;99.90;;;;;;6149755;23;20695;-91
2021/01/26 09:20:33;;;;;;;6.30;4.50;;;1.50;99.90;;;;;;6149915;23;20391;-94
2021/01/26 09:23:04;;;;;;;6.47;4.53;;;1.60;99.90;;;;;;6176916;23;20479;-93
2021/01/26 09:25:44;;;;;;;3.43;3.00;;;1.60;99.90;;;;;;6147901;23;20403;-89
2021/01/26 09:28:12;;;;;;;4.97;3.13;;;1.50;99.90;;;;;;6151157;23;20721;-92
2021/01/26 09:30:47;;;;;;;5.50;3.70;;;1.50;99.90;;;;;;6152968;23;20718;-92
2021/01/26 09:33:12;;;;;;;4.37;3.60;;;1.50;99.90;;;;;;6149422;23;20395;-92
2021/01/26 09:35:44;;;;;;;5.97;4.23;;;1.50;99.90;;;;;;6175765;23;20444;-92
2021/01/26 09:38:14;;;;;;;6.33;4.13;;;1.50;99.90;;;;;;6147297;23;20410;-91
2021/01/26 09:40:43;;;;;;;60.33;47.40;;;1.50;99.90;;;;;;6148066;23;20877;-89
2021/01/26 09:43:19;;;;;;;9.23;5.43;;;1.60;99.90;;;;;;6148018;23;20892;-92
2021/01/26 09:45:59;;;;;;;4.50;3.50;;;1.60;99.90;;;;;;6147219;23;20395;-91
2021/01/26 09:48:43;;;;;;;5.10;3.50;;;1.60;99.90;;;;;;6141624;23;20387;-91
2021/01/26 09:51:14;;;;;;;5.53;3.50;;;1.50;99.90;;;;;;6148902;23;20403;-87
2021/01/26 09:53:42;;;;;;;5.60;4.17;;;1.50;99.90;;;;;;6149572;23;20392;-81
2021/01/26 09:56:10;;;;;;;5.83;3.87;;;1.60;99.90;;;;;;6176738;23;20816;-94
2021/01/26 09:58:36;;;;;;;4.70;4.00;;;1.70;99.90;;;;;;6125773;23;20455;-92
2021/01/26 10:01:03;;;;;;;8.00;3.57;;;2.00;99.90;;;;;;6149109;23;20395;-91
2021/01/26 10:03:29;;;;;;;5.73;4.10;;;2.20;99.90;;;;;;6148738;23;20483;-91
2021/01/26 10:06:01;;;;;;;4.30;3.43;;;2.60;99.90;;;;;;6150296;23;20395;-92
2021/01/26 10:08:34;;;;;;;3.37;2.10;;;2.60;99.90;;;;;;6125638;23;20461;-94
2021/01/26 10:11:11;;;;;;;4.50;2.40;;;2.70;99.90;;;;;;6150711;23;20696;-91
2021/01/26 10:13:39;;;;;;;2.30;2.10;;;2.60;99.90;;;;;;6149365;23;20461;-91
2021/01/26 10:16:30;;;;;;;4.23;1.67;;;2.70;99.90;;;;;;6150216;23;20443;-91
2021/01/26 10:18:58;;;;;;;4.10;2.57;;;2.70;99.90;;;;;;6148893;23;20423;-92
2021/01/26 10:21:29;;;;;;;3.00;1.77;;;2.50;99.90;;;;;;6148778;23;20431;-92
2021/01/26 10:24:33;;;;;;;2.80;2.53;;;2.40;99.90;;;;;;6149451;23;20383;-90
2021/01/26 10:27:24;;;;;;;4.43;1.77;;;2.40;99.90;;;;;;6054952;23;20780;-91
2021/01/26 10:30:10;;;;;;;2.83;1.53;;;2.30;99.90;;;;;;6146085;23;20395;-92
2021/01/26 10:32:50;;;;;;;3.30;2.03;;;2.30;99.90;;;;;;6172101;23;20399;-90
2021/01/26 10:35:50;;;;;;;3.03;1.80;;;2.40;99.90;;;;;;6149312;23;20483;-92
2021/01/26 10:38:32;;;;;;;5.00;2.30;;;2.30;99.90;;;;;;6150978;23;20395;-93
2021/01/26 10:41:22;;;;;;;2.70;2.23;;;2.40;99.90;;;;;;6149128;23;20402;-90
2021/01/26 10:44:03;;;;;;;2.50;1.60;;;2.40;99.90;;;;;;6175583;23;20519;-90
2021/01/26 10:46:33;;;;;;;3.10;2.43;;;2.40;99.90;;;;;;6149028;23;20400;-89
2021/01/26 10:49:26;;;;;;;4.23;2.67;;;2.60;99.90;;;;;;6149034;23;20453;-88
2021/01/26 10:51:52;;;;;;;4.03;2.40;;;2.90;99.90;;;;;;6150095;23;20406;-92
2021/01/26 10:54:18;;;;;;;4.43;2.40;;;3.00;99.90;;;;;;6149116;23;20403;-90
2021/01/26 10:56:44;;;;;;;6.27;2.47;;;2.80;99.90;;;;;;6149886;23;20589;-89
2021/01/26 10:59:11;;;;;;;2.47;1.70;;;2.80;99.90;;;;;;6123573;23;20175;-91
2021/01/26 11:01:43;;;;;;;2.30;1.80;;;2.70;99.90;;;;;;6144713;23;20488;-87
2021/01/26 11:04:11;;;;;;;3.40;1.97;;;2.70;99.90;;;;;;6173404;23;20415;-88
2021/01/26 11:06:37;;;;;;;2.50;1.93;;;2.60;99.90;;;;;;6147895;23;20392;-87
2021/01/26 11:09:05;;;;;;;4.37;2.40;;;2.60;99.90;;;;;;6148235;23;20424;-90
2021/01/26 11:11:31;;;;;;;3.97;1.80;;;2.60;99.90;;;;;;6147672;23;20407;-89
2021/01/26 11:13:59;;;;;;;2.10;2.00;;;2.60;99.90;;;;;;6144300;23;20481;-86
2021/01/26 11:16:26;;;;;;;4.10;2.77;;;2.70;99.90;;;;;;6145806;23;20515;-88
2021/01/26 11:18:54;;;;;;;4.33;1.90;;;2.70;99.90;;;;;;6147222;23;20403;-90
2021/01/26 11:21:21;;;;;;;2.43;2.10;;;2.70;99.90;;;;;;6146043;23;20840;-89
2021/01/26 11:23:52;;;;;;;2.37;1.83;;;2.60;99.90;;;;;;6147503;23;20427;-88
2021/01/26 11:26:22;;;;;;;2.60;2.40;;;2.50;99.90;;;;;;6147855;23;20403;-88
2021/01/26 11:28:49;;;;;;;4.90;2.57;;;2.50;99.90;;;;;;6122299;23;20395;-87
2021/01/26 11:31:23;;;;;;;5.50;2.70;;;2.60;99.90;;;;;;6146511;23;20392;-89
2021/01/26 11:33:50;;;;;;;3.10;1.87;;;2.60;99.90;;;;;;6172318;23;20776;-89
2021/01/26 11:36:17;;;;;;;4.07;2.70;;;2.60;99.90;;;;;;6173673;23;20515;-88
2021/01/26 11:38:42;;;;;;;2.27;1.63;;;2.70;99.90;;;;;;6146943;23;20511;-88
2021/01/26 11:41:09;;;;;;;2.60;1.83;;;2.70;99.90;;;;;;6147363;23;20806;-89
2021/01/26 11:43:47;;;;;;;8.40;2.33;;;2.70;99.90;;;;;;6153336;23;20159;-88
2021/01/26 11:46:14;;;;;;;4.07;2.13;;;2.70;99.90;;;;;;6176595;23;20747;-88
2021/01/26 11:48:42;;;;;;;2.23;2.00;;;2.80;99.90;;;;;;6147433;23;20849;-86
2021/01/26 11:51:09;;;;;;;3.93;1.90;;;2.80;99.90;;;;;;6124255;23;20717;-94
2021/01/26 11:53:40;;;;;;;4.80;2.33;;;2.90;99.90;;;;;;6148660;23;20414;-93
2021/01/26 11:56:06;;;;;;;4.00;1.90;;;3.00;99.90;;;;;;6149467;23;20471;-92
2021/01/26 11:58:35;;;;;;;4.70;3.83;;;3.00;99.90;;;;;;6147047;23;20384;-91
2021/01/26 12:01:06;;;;;;;3.20;2.00;;;3.00;99.90;;;;;;6174927;23;20214;-93
2021/01/26 12:03:32;;;;;;;3.10;2.50;;;3.10;99.90;;;;;;6149244;23;20404;-93
2021/01/26 12:05:58;;;;;;;4.23;2.77;;;3.10;99.90;;;;;;6149584;23;20384;-92
2021/01/26 12:08:26;;;;;;;3.57;1.80;;;3.30;99.90;;;;;;6151180;23;20411;-92
2021/01/26 12:10:54;;;;;;;4.13;1.70;;;3.30;99.90;;;;;;6133442;23;20411;-93
2021/01/26 12:13:20;;;;;;;1.53;1.43;;;3.30;99.90;;;;;;6151590;23;20384;-92
2021/01/26 12:15:49;;;;;;;2.40;1.73;;;3.50;99.90;;;;;;6152246;23;20793;-94
2021/01/26 12:18:16;;;;;;;2.30;1.43;;;3.60;99.90;;;;;;6153560;23;20189;-94
2021/01/26 12:20:42;;;;;;;1.97;1.20;;;3.90;99.90;;;;;;6153166;23;20406;-92
2021/01/26 12:23:08;;;;;;;5.03;1.97;;;5.10;99.90;;;;;;6148913;23;20431;-90
2021/01/26 12:25:35;;;;;;;2.13;1.90;;;5.90;99.90;;;;;;6149154;23;20925;-90
2021/01/26 12:28:03;;;;;;;3.07;2.03;;;6.10;99.60;;;;;;6148610;23;20399;-94
2021/01/26 12:30:29;;;;;;;2.77;2.00;;;5.90;98.80;;;;;;6148479;23;20407;-92
2021/01/26 12:32:55;;;;;;;1.63;1.40;;;5.30;99.60;;;;;;6149340;23;20604;-91
2021/01/26 12:35:39;;;;;;;2.23;2.03;;;5.20;99.90;;;;;;6124387;23;20832;-91
2021/01/26 12:38:11;;;;;;;2.80;2.13;;;5.30;99.90;;;;;;6148055;23;20404;-90
2021/01/26 12:40:39;;;;;;;1.17;1.03;;;4.90;99.50;;;;;;6145232;23;20694;-90
2021/01/26 12:43:05;;;;;;;2.63;1.40;;;4.60;99.90;;;;;;6147254;23;20375;-92
2021/01/26 12:45:32;;;;;;;1.93;1.60;;;4.90;99.80;;;;;;6125084;23;20395;-91
2021/01/26 12:48:02;;;;;;;1.97;1.63;;;5.10;99.20;;;;;;6150963;23;20384;-94
2021/01/26 12:50:41;;;;;;;6.17;1.87;;;5.00;98.40;;;;;;6178657;23;20461;-93
2021/01/26 12:53:09;;;;;;;1.30;0.80;;;4.50;99.20;;;;;;6153426;23;20434;-93
2021/01/26 12:55:36;;;;;;;2.80;1.40;;;4.40;97.70;;;;;;6149993;23;20445;-93
2021/01/26 12:58:02;;;;;;;5.20;1.90;;;4.20;98.00;;;;;;6153536;23;20702;-93
2021/01/26 13:00:29;;;;;;;1.13;1.00;;;4.40;98.00;;;;;;6150135;23;20791;-93
2021/01/26 13:02:57;;;;;;;1.80;1.37;;;4.60;97.30;;;;;;6152964;23;20396;-93
2021/01/26 13:05:25;;;;;;;2.53;1.50;;;4.60;97.40;;;;;;6147813;23;20411;-96
2021/01/26 13:07:58;;;;;;;2.57;1.80;;;4.40;97.70;;;;;;6140637;23;20399;-91
2021/01/26 13:10:39;;;;;;;4.13;1.83;;;4.20;98.20;;;;;;6142767;23;20412;-94
2021/01/26 13:13:05;;;;;;;2.60;1.47;;;4.60;98.40;;;;;;6147174;23;20511;-91
2021/01/26 13:15:31;;;;;;;2.23;1.50;;;5.00;97.40;;;;;;6148516;23;20436;-94
2021/01/26 13:17:56;;;;;;;2.00;1.60;;;4.90;98.40;;;;;;6148831;23;20609;-92
2021/01/26 13:20:23;;;;;;;1.70;0.93;;;4.80;98.20;;;;;;6147020;23;20200;-91
2021/01/26 13:22:52;;;;;;;1.87;1.37;;;4.60;98.40;;;;;;6145038;23;20171;-95
2021/01/26 13:25:24;;;;;;;1.30;1.10;;;4.90;98.10;;;;;;6147780;23;20399;-90
2021/01/26 13:27:53;;;;;;;1.97;1.50;;;5.50;97.90;;;;;;6148279;23;20395;-92
2021/01/26 13:30:30;;;;;;;1.60;1.50;;;6.40;96.10;;;;;;6174899;23;20730;-94